OKBK/KWI METAR and TAF weather

Enter ICAO airport designator
Station Type Date Time Source
OKBK METAR 2020/09/21 08:00 UTC NOAA

OKBK 210800Z 04010KT 6000 SKC 38/11 Q1004 NOSIG


Station Type Date Time Source
OKBK Decoded METAR 2020/09/21 08:00 UTC NOAA

Kuwait Internationalairport, Kuwait (OKBK) 29-13N 047-59E 55M
Sep 21, 2020 - 04:00 AM EDT / 2020.09.21 0800 UTC
Wind: from the NE (040 degrees) at 12 MPH (10 KT):0
Visibility: 3 mile(s):0
Sky conditions: clear
Temperature: 100 F (38 C)
Heat index: 97.2 F (36.2 C):1
Dew Point: 51 F (11 C)
Relative Humidity: 19%
Pressure (altimeter): 29.65 in. Hg (1004 hPa)
ob: OKBK 210800Z 04010KT 6000 SKC 38/11 Q1004 NOSIG
cycle: 8

Station Type Date Time Source
OKBK TAF 2020/09/21 06:48 UTC NOAA

TAF TAF OKBK 210445Z 2106/2212 35015G30KT 7000 NSC
TEMPO 2106/2112 3000 BLDU
TEMPO 2114/2124 VRB03KT

Example: see airport list